Apache Junction, AZ (85118)

8:31 AM MST on January 29, 2015 (GMT -0700)
Superstition Foothills | Change Station
CLOSE
Current Station
Personal Weather Station
Location: Apache Junction, AZ
Elevation: 1916 ft
Nearby Weather Stations

Elev 1916 ft 33.41 °N, 111.47 °W | Updated 1 minute ago

Partly Cloudy
Partly Cloudy
56.6 °F
Feels Like 56.6 °F
N
0.0
Wind Variable Wind from NE
Gusts 0.0 mph

Today
High -- | Low -- °F
--% Chance of Precip.
Yesterday
High -- | Low -- °F
Precip. -- in
7:23 AM 5:54 PM
Waxing Gibbous, 75% visible
Pressure 30.08 in
Visibility 35.0 miles
Clouds Mostly Cloudy 15000 ft
Overcast 20000 ft
Dew Point 51 °F
Humidity 81%
Rainfall 0.00 in
Snow Depth Not available.
UV 0 out of 12
Pollen Not available.
Air Quality Not available.
Flu Activity Not available.
METAR KIWA 291447Z 08004KT 35SM BKN150 OVC200 12/10 A3008

More Conditions Fewer Conditions

Pressure 30.08 in
Visibility 35.0 miles
Clouds Mostly Cloudy 15000 ft
Overcast 20000 ft
Dew Point 51 °F
Humidity 81%
Rainfall 0.00 in
Snow Depth Not available.
UV 0 out of 12
Pollen Not available.
Air Quality Not available.
Flu Activity Not available.
METAR KIWA 291447Z 08004KT 35SM BKN150 OVC200 12/10 A3008

More Conditions Fewer Conditions

10-Day Weather Forecast

Almanac

Astronomy

Jan. 29, 2015 Rise Set
Actual Time
Civil Twilight
Nautical Twilight
Astronomical Twilight
Moon
Length of Visible Light
Length of Day
Tomorrow will be .
, % of the Moon is Illuminated

Today's Extremes

State Highs State Lows

Community

WunderPhotos

Upload Photos

1,791,456 photos uploaded!

WunderBlogs® & News

Nearby

Air Quality

  Air Quality AQ Index Pollutant
Not available.

Snow Depth

Station Depth Elevation

Earthquake Activity

City Distance Mag. Time & Date
Minimum magnitude displayed is 2.5.

Coastal Water Temperatures

Place Temperature

Nearby Weather Stations